createdAt,value
2022-08-18T00:01:32.808Z,1010.4
2022-08-18T00:06:28.015Z,1010.38
2022-08-18T00:11:18.015Z,1010.44
2022-08-18T00:16:10.746Z,1010.47
2022-08-18T00:21:03.307Z,1010.43
2022-08-18T00:25:56.309Z,1010.42
2022-08-18T00:30:48.796Z,1010.36
2022-08-18T00:35:41.442Z,1010.32
2022-08-18T00:40:37.759Z,1010.22
2022-08-18T00:45:26.567Z,1010.21
2022-08-18T00:50:19.192Z,1010.24
2022-08-18T00:55:11.999Z,1010.26
2022-08-18T01:00:04.567Z,1010.22
2022-08-18T01:09:45.114Z,1010.33
2022-08-18T01:14:38.946Z,1010.4
2022-08-18T01:19:31.384Z,1010.33
2022-08-18T01:24:23.882Z,1010.23
2022-08-18T01:34:09.338Z,1010.2
2022-08-18T01:43:54.399Z,1010.22
2022-08-18T01:53:39.901Z,1010.25
2022-08-18T01:58:32.174Z,1010.2
2022-08-18T02:03:24.669Z,1010.21
2022-08-18T02:08:17.201Z,1010.2
2022-08-18T02:13:09.856Z,1010.25
2022-08-18T02:18:02.237Z,1010.28
2022-08-18T02:22:54.570Z,1010.23
2022-08-18T02:27:47.451Z,1010.25
2022-08-18T02:32:39.901Z,1010.29
2022-08-18T02:37:31.896Z,1010.32
2022-08-18T02:42:24.331Z,1010.34
2022-08-18T02:47:17.144Z,1010.36
2022-08-18T02:52:09.624Z,1010.27
2022-08-18T02:57:02.073Z,1010.27
2022-08-18T03:01:54.418Z,1010.14
2022-08-18T03:06:47.060Z,1010.08
2022-08-18T03:11:39.672Z,1010.08
2022-08-18T03:16:32.273Z,1010.06
2022-08-18T03:21:25.062Z,1010.08
2022-08-18T03:26:17.439Z,1009.99
2022-08-18T03:31:09.682Z,1010.09
2022-08-18T03:36:02.169Z,1010.07
2022-08-18T03:40:54.434Z,1010.08
2022-08-18T03:45:47.109Z,1010.08
2022-08-18T03:50:39.574Z,1010.11
2022-08-18T03:55:32.002Z,1010.11
2022-08-18T04:00:24.836Z,1010.06
2022-08-18T04:05:17.346Z,1010.04
2022-08-18T04:10:14.036Z,1010.08
2022-08-18T04:15:02.229Z,1010.1
2022-08-18T04:19:54.706Z,1010.2
2022-08-18T04:24:47.163Z,1010.32
2022-08-18T04:29:40.086Z,1010.36
2022-08-18T04:34:32.773Z,1010.33
2022-08-18T04:39:25.322Z,1010.3
2022-08-18T04:44:18.037Z,1010.35
2022-08-18T04:49:10.553Z,1010.38
2022-08-18T04:54:02.610Z,1010.48
2022-08-18T04:58:54.530Z,1010.53
2022-08-18T05:03:49.961Z,1010.49
2022-08-18T05:08:39.374Z,1010.5
2022-08-18T05:13:32.245Z,1010.53
2022-08-18T05:18:24.816Z,1010.61
2022-08-18T05:23:17.323Z,1010.85
2022-08-18T05:28:08.948Z,1010.85
2022-08-18T05:33:01.891Z,1010.89
2022-08-18T05:37:54.125Z,1010.97
2022-08-18T05:42:46.364Z,1011.13
2022-08-18T05:47:38.621Z,1011.13
2022-08-18T05:52:31.056Z,1011.16
2022-08-18T05:57:23.281Z,1011.23
2022-08-18T06:02:16.413Z,1011.27
2022-08-18T06:07:09.405Z,1011.21
2022-08-18T06:12:01.720Z,1011.23
2022-08-18T06:16:54.436Z,1011.27
2022-08-18T06:21:41.643Z,1011.35
2022-08-18T06:26:34.106Z,1011.39
2022-08-18T06:31:29.504Z,1011.34
2022-08-18T06:36:21.497Z,1011.31
2022-08-18T06:41:37.700Z,1011.41
2022-08-18T06:46:05.333Z,1011.42
2022-08-18T06:50:53.580Z,1011.54
2022-08-18T06:55:45.470Z,1011.64
2022-08-18T07:00:39.566Z,1011.62
2022-08-18T07:05:32.057Z,1011.66
2022-08-18T07:10:24.189Z,1011.69
2022-08-18T07:15:17.263Z,1011.65
2022-08-18T07:20:10.074Z,1011.52
2022-08-18T07:25:05.245Z,1011.67
2022-08-18T07:29:54.189Z,1011.84
2022-08-18T07:34:47.983Z,1011.93
2022-08-18T07:39:39.011Z,1012.06
2022-08-18T07:44:31.488Z,1012.09
2022-08-18T07:49:24.000Z,1012.12
2022-08-18T07:59:10.805Z,1012.07
2022-08-18T08:08:56.937Z,1012.01
2022-08-18T08:18:41.961Z,1011.97
2022-08-18T08:23:34.672Z,1011.94
2022-08-18T08:28:27.140Z,1011.96
2022-08-18T08:33:20.177Z,1012.06
2022-08-18T08:38:36.960Z,1012.16
2022-08-18T08:43:04.992Z,1012.15
2022-08-18T08:48:04.311Z,1012.27
2022-08-18T08:52:50.261Z,1012.09
2022-08-18T08:57:42.897Z,1011.99
2022-08-18T09:02:47.666Z,1011.89
2022-08-18T09:07:28.002Z,1011.93
2022-08-18T09:12:20.613Z,1011.98
2022-08-18T09:17:12.912Z,1011.9
2022-08-18T09:22:05.021Z,1011.92
2022-08-18T09:26:57.521Z,1012.22
2022-08-18T09:31:49.886Z,1012.43
2022-08-18T09:36:42.385Z,1012.51
2022-08-18T09:41:35.161Z,1012.6
2022-08-18T09:46:27.932Z,1012.49
2022-08-18T09:51:20.543Z,1012.42
2022-08-18T09:56:13.342Z,1012.4
2022-08-18T10:01:06.196Z,1012.28
2022-08-18T10:05:59.511Z,1012.14
2022-08-18T10:10:58.679Z,1012.02
2022-08-18T10:15:44.440Z,1011.96
2022-08-18T10:20:37.063Z,1012
2022-08-18T10:25:29.631Z,1011.91
2022-08-18T10:30:22.251Z,1011.96
2022-08-18T10:35:14.929Z,1011.9
2022-08-18T10:40:07.932Z,1011.73
2022-08-18T10:45:00.544Z,1011.71
2022-08-18T10:49:53.374Z,1011.7
2022-08-18T10:59:41.526Z,1011.72
2022-08-18T11:04:33.718Z,1011.76
2022-08-18T11:09:24.114Z,1011.75
2022-08-18T11:14:16.531Z,1011.78
2022-08-18T11:19:09.246Z,1011.89
2022-08-18T11:24:01.641Z,1011.9
2022-08-18T11:28:54.229Z,1012.01
2022-08-18T11:33:46.796Z,1012.11
2022-08-18T11:38:39.410Z,1012.05
2022-08-18T11:43:38.848Z,1011.94
2022-08-18T11:48:29.906Z,1011.82
2022-08-18T11:53:17.576Z,1011.8
2022-08-18T11:58:10.370Z,1011.88
2022-08-18T12:03:02.498Z,1011.87
2022-08-18T12:07:57.617Z,1011.89
2022-08-18T12:12:47.880Z,1011.92
2022-08-18T12:17:40.512Z,1011.87
2022-08-18T12:22:32.854Z,1011.81
2022-08-18T12:27:25.471Z,1011.71
2022-08-18T12:32:41.699Z,1011.72
2022-08-18T12:37:25.642Z,1011.51
2022-08-18T12:42:03.355Z,1011.44
2022-08-18T12:46:55.900Z,1011.14
2022-08-18T12:51:50.084Z,1010.97
2022-08-18T12:56:40.968Z,1010.9
2022-08-18T13:01:34.293Z,1010.81
2022-08-18T13:06:27.560Z,1010.9
2022-08-18T13:11:21.740Z,1011.03
2022-08-18T13:16:16.275Z,1010.99
2022-08-18T13:21:04.575Z,1011.03
2022-08-18T13:25:59.239Z,1011
2022-08-18T13:30:49.927Z,1011.01
2022-08-18T13:35:44.414Z,1010.93
2022-08-18T13:40:35.573Z,1011.01
2022-08-18T13:45:28.400Z,1011
2022-08-18T13:50:21.485Z,1011.03
2022-08-18T13:55:16.703Z,1010.88
2022-08-18T14:00:06.864Z,1010.78
2022-08-18T14:04:59.503Z,1010.78
2022-08-18T14:09:52.188Z,1010.78
2022-08-18T14:14:44.474Z,1010.73
2022-08-18T14:24:29.974Z,1010.6
2022-08-18T14:34:15.320Z,1010.41
2022-08-18T14:44:11.710Z,1010.32
2022-08-18T14:53:45.592Z,1010.37
2022-08-18T15:03:31.831Z,1010.13
2022-08-18T15:13:16.496Z,1010.38
2022-08-18T15:18:09.806Z,1010.39
2022-08-18T15:23:01.911Z,1010.39
2022-08-18T15:27:54.511Z,1010.37
2022-08-18T15:32:47.131Z,1010.36
2022-08-18T15:37:39.615Z,1010.19
2022-08-18T15:42:33.103Z,1010.19
2022-08-18T15:47:25.415Z,1010.19
2022-08-18T15:52:19.757Z,1010.13
2022-08-18T15:57:10.407Z,1010.1
2022-08-18T16:02:02.921Z,1009.94
2022-08-18T16:06:55.392Z,1009.92
2022-08-18T16:11:47.991Z,1009.82
2022-08-18T16:16:40.351Z,1009.66
2022-08-18T16:21:32.834Z,1009.51
2022-08-18T16:26:25.271Z,1009.56
2022-08-18T16:31:17.818Z,1009.61
2022-08-18T16:36:10.374Z,1009.58
2022-08-18T16:41:02.910Z,1009.51
2022-08-18T16:45:55.523Z,1009.48
2022-08-18T16:50:48.206Z,1009.58
2022-08-18T16:55:40.807Z,1009.54
2022-08-18T17:00:33.407Z,1009.55
2022-08-18T17:05:26.030Z,1009.48
2022-08-18T17:10:18.550Z,1009.5
2022-08-18T17:15:06.238Z,1009.57
2022-08-18T17:19:58.885Z,1009.63
2022-08-18T17:24:52.808Z,1009.58
2022-08-18T17:29:45.361Z,1009.57
2022-08-18T17:34:39.569Z,1009.57
2022-08-18T17:39:30.523Z,1009.59
2022-08-18T17:44:28.766Z,1009.68
2022-08-18T17:49:16.064Z,1009.78
2022-08-18T17:54:08.394Z,1009.86
2022-08-18T17:59:01.131Z,1009.93
2022-08-18T18:03:53.919Z,1009.93
2022-08-18T18:08:46.541Z,1010.06
2022-08-18T18:13:38.974Z,1010.2
2022-08-18T18:18:30.989Z,1010.12
2022-08-18T18:23:23.444Z,1010.16
2022-08-18T18:28:15.951Z,1010.14
2022-08-18T18:33:08.612Z,1010.12
2022-08-18T18:38:01.189Z,1009.99
2022-08-18T18:42:54.090Z,1010.03
2022-08-18T18:47:46.382Z,1010.06
2022-08-18T18:52:39.178Z,1010.1
2022-08-18T18:57:31.761Z,1010.1
2022-08-18T19:02:33.412Z,1010.05
2022-08-18T19:07:20.979Z,1010.07
2022-08-18T19:12:08.959Z,1010.06
2022-08-18T19:17:01.490Z,1010.1
2022-08-18T19:22:02.761Z,1010.12
2022-08-18T19:26:46.497Z,1010.1
2022-08-18T19:31:39.326Z,1010.18
2022-08-18T19:36:31.990Z,1010.3
2022-08-18T19:41:27.848Z,1010.46
2022-08-18T19:46:17.565Z,1010.52
2022-08-18T19:51:10.163Z,1010.47
2022-08-18T19:56:02.694Z,1010.32
2022-08-18T20:00:55.489Z,1010.37
2022-08-18T20:05:48.267Z,1010.33
2022-08-18T20:10:40.797Z,1010.39
2022-08-18T20:20:26.781Z,1010.23
2022-08-18T20:30:12.140Z,1010.09
2022-08-18T20:39:57.527Z,1010.08
2022-08-18T20:44:50.117Z,1009.97
2022-08-18T20:49:42.631Z,1009.95
2022-08-18T20:54:35.044Z,1009.86
2022-08-18T20:59:27.963Z,1009.78
2022-08-18T21:04:20.505Z,1009.87
2022-08-18T21:09:13.004Z,1009.89
2022-08-18T21:14:05.741Z,1010.02
2022-08-18T21:18:58.478Z,1010.18
2022-08-18T21:23:51.062Z,1010.24
2022-08-18T21:28:43.898Z,1010.17
2022-08-18T21:33:36.820Z,1010.19
2022-08-18T21:38:29.550Z,1010.2
2022-08-18T21:43:22.065Z,1010.27
2022-08-18T21:48:14.802Z,1010.36
2022-08-18T21:53:07.265Z,1010.38
2022-08-18T21:57:59.778Z,1010.37
2022-08-18T22:02:52.642Z,1010.38
2022-08-18T22:07:45.259Z,1010.48
2022-08-18T22:12:38.160Z,1010.54
2022-08-18T22:17:30.751Z,1010.63
2022-08-18T22:22:23.153Z,1010.63
2022-08-18T22:27:15.888Z,1010.65
2022-08-18T22:32:08.614Z,1010.66
2022-08-18T22:37:01.255Z,1010.64
2022-08-18T22:41:53.861Z,1010.65
2022-08-18T22:46:46.498Z,1010.64
2022-08-18T22:51:38.898Z,1010.58
2022-08-18T22:56:34.162Z,1010.56
2022-08-18T23:01:24.013Z,1010.56
2022-08-18T23:06:16.351Z,1010.55
2022-08-18T23:11:08.857Z,1010.49
2022-08-18T23:16:12.609Z,1010.48
2022-08-18T23:20:54.501Z,1010.46
2022-08-18T23:25:46.803Z,1010.45
2022-08-18T23:30:39.646Z,1010.4
2022-08-18T23:35:32.432Z,1010.42
2022-08-18T23:40:25.066Z,1010.47
2022-08-18T23:45:17.626Z,1010.51
2022-08-18T23:50:10.195Z,1010.6
2022-08-18T23:55:03.065Z,1010.61
2022-08-18T23:59:55.748Z,1010.51
